sensor_id;sensor_type;location;lat;lon;timestamp;temperature;humidity
26575;DHT22;67165;50.256;10.978;2023-03-11T00:00:47;1.80;98.00
26575;DHT22;67165;50.256;10.978;2023-03-11T00:03:15;1.80;98.00
26575;DHT22;67165;50.256;10.978;2023-03-11T00:05:42;1.90;98.00
26575;DHT22;67165;50.256;10.978;2023-03-11T00:08:12;1.90;98.00
26575;DHT22;67165;50.256;10.978;2023-03-11T00:10:43;1.90;98.00
26575;DHT22;67165;50.256;10.978;2023-03-11T00:13:10;1.90;98.00
26575;DHT22;67165;50.256;10.978;2023-03-11T00:15:37;1.90;98.00
26575;DHT22;67165;50.256;10.978;2023-03-11T00:18:04;1.90;98.00
26575;DHT22;67165;50.256;10.978;2023-03-11T00:20:38;1.90;98.00
26575;DHT22;67165;50.256;10.978;2023-03-11T00:23:06;1.80;98.00
26575;DHT22;67165;50.256;10.978;2023-03-11T00:25:33;1.80;98.00
26575;DHT22;67165;50.256;10.978;2023-03-11T00:27:59;1.80;98.00
26575;DHT22;67165;50.256;10.978;2023-03-11T00:30:25;1.90;98.00
26575;DHT22;67165;50.256;10.978;2023-03-11T00:32:54;1.90;98.00
26575;DHT22;67165;50.256;10.978;2023-03-11T00:35:22;1.90;98.00
26575;DHT22;67165;50.256;10.978;2023-03-11T00:37:56;1.90;98.00
26575;DHT22;67165;50.256;10.978;2023-03-11T00:40:23;2.00;98.00
26575;DHT22;67165;50.256;10.978;2023-03-11T00:42:51;2.00;98.00
26575;DHT22;67165;50.256;10.978;2023-03-11T00:45:17;2.00;98.00
26575;DHT22;67165;50.256;10.978;2023-03-11T00:47:43;2.00;98.00
26575;DHT22;67165;50.256;10.978;2023-03-11T00:50:14;1.90;98.00
26575;DHT22;67165;50.256;10.978;2023-03-11T00:52:43;1.90;98.00
26575;DHT22;67165;50.256;10.978;2023-03-11T00:55:09;2.00;98.00
26575;DHT22;67165;50.256;10.978;2023-03-11T00:57:36;1.90;98.00
26575;DHT22;67165;50.256;10.978;2023-03-11T01:00:04;1.90;98.00
26575;DHT22;67165;50.256;10.978;2023-03-11T01:02:35;1.90;98.00
26575;DHT22;67165;50.256;10.978;2023-03-11T01:05:01;2.00;98.00
26575;DHT22;67165;50.256;10.978;2023-03-11T01:07:26;1.90;98.00
26575;DHT22;67165;50.256;10.978;2023-03-11T01:09:52;1.90;98.00
26575;DHT22;67165;50.256;10.978;2023-03-11T01:12:17;1.90;98.00
26575;DHT22;67165;50.256;10.978;2023-03-11T01:14:43;1.90;98.00
26575;DHT22;67165;50.256;10.978;2023-03-11T01:17:09;1.80;98.00
26575;DHT22;67165;50.256;10.978;2023-03-11T01:19:34;1.90;98.00
26575;DHT22;67165;50.256;10.978;2023-03-11T01:22:00;1.90;98.00
26575;DHT22;67165;50.256;10.978;2023-03-11T01:24:25;1.80;98.00
26575;DHT22;67165;50.256;10.978;2023-03-11T01:26:51;1.90;98.00
26575;DHT22;67165;50.256;10.978;2023-03-11T01:29:17;1.90;98.00
26575;DHT22;67165;50.256;10.978;2023-03-11T01:31:42;1.90;98.00
26575;DHT22;67165;50.256;10.978;2023-03-11T01:34:08;1.90;98.00
26575;DHT22;67165;50.256;10.978;2023-03-11T01:36:33;1.90;98.00
26575;DHT22;67165;50.256;10.978;2023-03-11T01:38:59;1.90;98.00
26575;DHT22;67165;50.256;10.978;2023-03-11T01:41:25;1.80;98.00
26575;DHT22;67165;50.256;10.978;2023-03-11T01:43:52;1.80;98.00
26575;DHT22;67165;50.256;10.978;2023-03-11T01:46:35;1.80;98.00
26575;DHT22;67165;50.256;10.978;2023-03-11T01:49:08;1.80;98.00
26575;DHT22;67165;50.256;10.978;2023-03-11T01:51:41;1.80;98.00
26575;DHT22;67165;50.256;10.978;2023-03-11T01:54:31;1.80;98.00
26575;DHT22;67165;50.256;10.978;2023-03-11T01:56:59;1.80;98.00
26575;DHT22;67165;50.256;10.978;2023-03-11T01:59:29;1.80;98.00
26575;DHT22;67165;50.256;10.978;2023-03-11T02:02:04;1.80;98.00
26575;DHT22;67165;50.256;10.978;2023-03-11T02:04:32;1.80;98.00
26575;DHT22;67165;50.256;10.978;2023-03-11T02:06:59;1.70;98.00
26575;DHT22;67165;50.256;10.978;2023-03-11T02:09:25;1.80;98.00
26575;DHT22;67165;50.256;10.978;2023-03-11T02:11:51;1.80;98.00
26575;DHT22;67165;50.256;10.978;2023-03-11T02:14:17;1.80;98.00
26575;DHT22;67165;50.256;10.978;2023-03-11T02:16:44;1.90;98.00
26575;DHT22;67165;50.256;10.978;2023-03-11T02:21:44;1.90;98.00
26575;DHT22;67165;50.256;10.978;2023-03-11T02:29:22;1.70;98.00
26575;DHT22;67165;50.256;10.978;2023-03-11T02:31:49;1.70;98.00
26575;DHT22;67165;50.256;10.978;2023-03-11T02:34:22;1.70;98.00
26575;DHT22;67165;50.256;10.978;2023-03-11T02:36:48;1.70;98.00
26575;DHT22;67165;50.256;10.978;2023-03-11T02:39:14;1.70;98.00
26575;DHT22;67165;50.256;10.978;2023-03-11T02:41:43;1.70;98.00
26575;DHT22;67165;50.256;10.978;2023-03-11T02:44:11;1.70;98.00
26575;DHT22;67165;50.256;10.978;2023-03-11T02:46:39;1.70;98.00
26575;DHT22;67165;50.256;10.978;2023-03-11T02:49:07;1.70;98.00
26575;DHT22;67165;50.256;10.978;2023-03-11T02:51:33;1.70;98.00
26575;DHT22;67165;50.256;10.978;2023-03-11T02:54:02;1.70;98.00
26575;DHT22;67165;50.256;10.978;2023-03-11T02:56:28;1.60;98.00
26575;DHT22;67165;50.256;10.978;2023-03-11T02:58:54;1.60;98.00
26575;DHT22;67165;50.256;10.978;2023-03-11T03:01:20;1.60;98.00
26575;DHT22;67165;50.256;10.978;2023-03-11T03:03:46;1.60;98.00
26575;DHT22;67165;50.256;10.978;2023-03-11T03:06:11;1.60;98.00
26575;DHT22;67165;50.256;10.978;2023-03-11T03:08:37;1.60;98.00
26575;DHT22;67165;50.256;10.978;2023-03-11T03:11:03;1.70;98.00
26575;DHT22;67165;50.256;10.978;2023-03-11T03:13:29;1.60;98.00
26575;DHT22;67165;50.256;10.978;2023-03-11T03:15:55;1.60;98.00
26575;DHT22;67165;50.256;10.978;2023-03-11T03:18:21;1.50;98.00
26575;DHT22;67165;50.256;10.978;2023-03-11T03:20:47;1.50;98.00
26575;DHT22;67165;50.256;10.978;2023-03-11T03:23:13;1.50;98.00
26575;DHT22;67165;50.256;10.978;2023-03-11T03:25:43;1.50;98.00
26575;DHT22;67165;50.256;10.978;2023-03-11T03:28:10;1.50;98.00
26575;DHT22;67165;50.256;10.978;2023-03-11T03:30:36;1.40;98.00
26575;DHT22;67165;50.256;10.978;2023-03-11T03:33:02;1.40;98.00
26575;DHT22;67165;50.256;10.978;2023-03-11T03:35:28;1.40;98.00
26575;DHT22;67165;50.256;10.978;2023-03-11T03:37:53;1.40;98.00
26575;DHT22;67165;50.256;10.978;2023-03-11T03:40:19;1.40;98.00
26575;DHT22;67165;50.256;10.978;2023-03-11T03:42:45;1.30;98.00
26575;DHT22;67165;50.256;10.978;2023-03-11T03:45:11;1.40;98.00
26575;DHT22;67165;50.256;10.978;2023-03-11T03:47:37;1.40;98.00
26575;DHT22;67165;50.256;10.978;2023-03-11T03:50:04;1.40;98.00
26575;DHT22;67165;50.256;10.978;2023-03-11T03:52:30;1.40;98.00
26575;DHT22;67165;50.256;10.978;2023-03-11T03:54:56;1.30;98.00
26575;DHT22;67165;50.256;10.978;2023-03-11T03:57:21;1.30;98.00
26575;DHT22;67165;50.256;10.978;2023-03-11T03:59:47;1.30;98.00
26575;DHT22;67165;50.256;10.978;2023-03-11T04:02:12;1.30;98.00
26575;DHT22;67165;50.256;10.978;2023-03-11T04:04:38;1.20;98.00
26575;DHT22;67165;50.256;10.978;2023-03-11T04:07:04;1.20;98.00
26575;DHT22;67165;50.256;10.978;2023-03-11T04:09:31;1.20;98.00
26575;DHT22;67165;50.256;10.978;2023-03-11T04:11:56;1.20;98.00
26575;DHT22;67165;50.256;10.978;2023-03-11T04:14:22;1.30;98.00
26575;DHT22;67165;50.256;10.978;2023-03-11T04:16:48;1.30;98.00
26575;DHT22;67165;50.256;10.978;2023-03-11T04:19:13;1.30;98.00
26575;DHT22;67165;50.256;10.978;2023-03-11T04:21:39;1.30;98.00
26575;DHT22;67165;50.256;10.978;2023-03-11T04:24:05;1.20;98.00
26575;DHT22;67165;50.256;10.978;2023-03-11T04:26:30;1.30;98.00
26575;DHT22;67165;50.256;10.978;2023-03-11T04:28:56;1.30;98.00
26575;DHT22;67165;50.256;10.978;2023-03-11T04:31:22;1.30;98.00
26575;DHT22;67165;50.256;10.978;2023-03-11T04:33:47;1.30;98.00
26575;DHT22;67165;50.256;10.978;2023-03-11T04:36:13;1.30;98.00
26575;DHT22;67165;50.256;10.978;2023-03-11T04:38:39;1.30;98.00
26575;DHT22;67165;50.256;10.978;2023-03-11T04:41:06;1.30;98.00
26575;DHT22;67165;50.256;10.978;2023-03-11T04:43:32;1.30;98.00
26575;DHT22;67165;50.256;10.978;2023-03-11T04:45:58;1.20;98.00
26575;DHT22;67165;50.256;10.978;2023-03-11T04:48:24;1.20;98.00
26575;DHT22;67165;50.256;10.978;2023-03-11T04:50:51;1.20;98.00
26575;DHT22;67165;50.256;10.978;2023-03-11T04:53:20;1.30;98.00
26575;DHT22;67165;50.256;10.978;2023-03-11T04:55:49;1.20;98.00
26575;DHT22;67165;50.256;10.978;2023-03-11T04:58:15;1.20;98.00
26575;DHT22;67165;50.256;10.978;2023-03-11T05:00:40;1.20;98.00
26575;DHT22;67165;50.256;10.978;2023-03-11T05:03:06;1.20;98.00
26575;DHT22;67165;50.256;10.978;2023-03-11T05:05:31;1.20;98.00
26575;DHT22;67165;50.256;10.978;2023-03-11T05:07:57;1.10;98.00
26575;DHT22;67165;50.256;10.978;2023-03-11T05:10:23;1.10;98.00
26575;DHT22;67165;50.256;10.978;2023-03-11T05:12:49;1.10;98.00
26575;DHT22;67165;50.256;10.978;2023-03-11T05:15:15;1.10;98.00
26575;DHT22;67165;50.256;10.978;2023-03-11T05:17:40;1.10;98.00
26575;DHT22;67165;50.256;10.978;2023-03-11T05:20:08;1.10;98.00
26575;DHT22;67165;50.256;10.978;2023-03-11T05:22:34;1.10;98.00
26575;DHT22;67165;50.256;10.978;2023-03-11T05:24:59;1.20;98.00
26575;DHT22;67165;50.256;10.978;2023-03-11T05:27:25;1.20;98.00
26575;DHT22;67165;50.256;10.978;2023-03-11T05:29:51;1.20;98.00
26575;DHT22;67165;50.256;10.978;2023-03-11T05:32:16;1.20;98.00
26575;DHT22;67165;50.256;10.978;2023-03-11T05:34:43;1.10;98.00
26575;DHT22;67165;50.256;10.978;2023-03-11T05:37:09;1.00;98.00
26575;DHT22;67165;50.256;10.978;2023-03-11T05:39:35;0.90;98.00
26575;DHT22;67165;50.256;10.978;2023-03-11T05:42:02;0.90;98.00
26575;DHT22;67165;50.256;10.978;2023-03-11T05:44:28;0.90;98.00
26575;DHT22;67165;50.256;10.978;2023-03-11T05:46:54;0.90;98.00
26575;DHT22;67165;50.256;10.978;2023-03-11T05:49:19;0.90;98.00
26575;DHT22;67165;50.256;10.978;2023-03-11T05:51:46;0.80;98.00
26575;DHT22;67165;50.256;10.978;2023-03-11T05:54:12;0.70;98.00
26575;DHT22;67165;50.256;10.978;2023-03-11T05:56:40;0.70;98.00
26575;DHT22;67165;50.256;10.978;2023-03-11T05:59:07;0.70;98.00
26575;DHT22;67165;50.256;10.978;2023-03-11T06:01:33;0.60;98.00
26575;DHT22;67165;50.256;10.978;2023-03-11T06:03:59;0.60;98.00
26575;DHT22;67165;50.256;10.978;2023-03-11T06:06:25;0.70;98.00
26575;DHT22;67165;50.256;10.978;2023-03-11T06:08:51;0.80;98.00
26575;DHT22;67165;50.256;10.978;2023-03-11T06:11:17;0.90;98.00
26575;DHT22;67165;50.256;10.978;2023-03-11T06:13:43;0.90;98.00
26575;DHT22;67165;50.256;10.978;2023-03-11T06:16:10;0.90;98.00
26575;DHT22;67165;50.256;10.978;2023-03-11T06:18:36;0.90;98.00
26575;DHT22;67165;50.256;10.978;2023-03-11T06:21:02;0.90;98.00
26575;DHT22;67165;50.256;10.978;2023-03-11T06:23:28;1.10;98.00
26575;DHT22;67165;50.256;10.978;2023-03-11T06:25:56;1.10;98.00
26575;DHT22;67165;50.256;10.978;2023-03-11T06:28:22;1.10;98.00
26575;DHT22;67165;50.256;10.978;2023-03-11T06:30:48;1.10;98.00
26575;DHT22;67165;50.256;10.978;2023-03-11T06:33:13;1.10;98.00
26575;DHT22;67165;50.256;10.978;2023-03-11T06:35:40;1.10;98.00
26575;DHT22;67165;50.256;10.978;2023-03-11T06:38:05;1.10;98.00
26575;DHT22;67165;50.256;10.978;2023-03-11T06:40:31;1.20;98.00
26575;DHT22;67165;50.256;10.978;2023-03-11T06:42:58;1.20;98.00
26575;DHT22;67165;50.256;10.978;2023-03-11T06:45:23;1.20;98.00
26575;DHT22;67165;50.256;10.978;2023-03-11T06:47:49;1.30;98.00
26575;DHT22;67165;50.256;10.978;2023-03-11T06:50:15;1.30;98.00
26575;DHT22;67165;50.256;10.978;2023-03-11T06:52:41;1.40;98.00
26575;DHT22;67165;50.256;10.978;2023-03-11T06:55:07;1.40;98.00
26575;DHT22;67165;50.256;10.978;2023-03-11T06:57:32;1.50;98.00
26575;DHT22;67165;50.256;10.978;2023-03-11T06:59:58;1.50;98.00
26575;DHT22;67165;50.256;10.978;2023-03-11T07:02:24;1.60;98.00
26575;DHT22;67165;50.256;10.978;2023-03-11T07:04:50;1.60;98.00
26575;DHT22;67165;50.256;10.978;2023-03-11T07:07:15;1.70;98.00
26575;DHT22;67165;50.256;10.978;2023-03-11T07:09:41;1.70;98.00
26575;DHT22;67165;50.256;10.978;2023-03-11T07:12:07;1.70;98.00
26575;DHT22;67165;50.256;10.978;2023-03-11T07:14:33;1.80;98.00
26575;DHT22;67165;50.256;10.978;2023-03-11T07:16:59;1.80;98.00
26575;DHT22;67165;50.256;10.978;2023-03-11T07:19:25;1.80;98.00
26575;DHT22;67165;50.256;10.978;2023-03-11T07:21:50;1.80;98.00
26575;DHT22;67165;50.256;10.978;2023-03-11T07:24:16;1.70;98.00
26575;DHT22;67165;50.256;10.978;2023-03-11T07:26:42;1.80;98.00
26575;DHT22;67165;50.256;10.978;2023-03-11T07:29:08;1.80;98.00
26575;DHT22;67165;50.256;10.978;2023-03-11T07:31:35;1.80;98.00
26575;DHT22;67165;50.256;10.978;2023-03-11T07:34:06;1.80;98.00
26575;DHT22;67165;50.256;10.978;2023-03-11T07:36:36;1.90;98.00
26575;DHT22;67165;50.256;10.978;2023-03-11T07:39:04;2.00;98.00
26575;DHT22;67165;50.256;10.978;2023-03-11T07:41:32;1.90;98.00
26575;DHT22;67165;50.256;10.978;2023-03-11T07:43:58;2.00;98.00
26575;DHT22;67165;50.256;10.978;2023-03-11T07:46:26;2.10;98.00
26575;DHT22;67165;50.256;10.978;2023-03-11T07:48:54;2.10;98.00
26575;DHT22;67165;50.256;10.978;2023-03-11T07:53:48;2.40;98.00
26575;DHT22;67165;50.256;10.978;2023-03-11T07:56:15;2.30;98.00
26575;DHT22;67165;50.256;10.978;2023-03-11T07:58:41;2.40;98.00
26575;DHT22;67165;50.256;10.978;2023-03-11T08:01:16;2.40;98.00
26575;DHT22;67165;50.256;10.978;2023-03-11T08:03:43;2.40;98.00
26575;DHT22;67165;50.256;10.978;2023-03-11T08:06:16;2.50;98.00
26575;DHT22;67165;50.256;10.978;2023-03-11T08:08:42;2.60;98.00
26575;DHT22;67165;50.256;10.978;2023-03-11T08:11:09;2.70;98.00
26575;DHT22;67165;50.256;10.978;2023-03-11T08:13:35;2.70;98.00
26575;DHT22;67165;50.256;10.978;2023-03-11T08:16:05;2.50;98.00
26575;DHT22;67165;50.256;10.978;2023-03-11T08:18:32;2.40;98.00
26575;DHT22;67165;50.256;10.978;2023-03-11T08:20:58;2.40;98.00
26575;DHT22;67165;50.256;10.978;2023-03-11T08:23:24;2.40;98.00
26575;DHT22;67165;50.256;10.978;2023-03-11T08:25:50;2.40;98.00
26575;DHT22;67165;50.256;10.978;2023-03-11T08:28:15;2.40;98.00
26575;DHT22;67165;50.256;10.978;2023-03-11T08:30:41;2.50;98.00
26575;DHT22;67165;50.256;10.978;2023-03-11T08:33:07;2.50;98.00
26575;DHT22;67165;50.256;10.978;2023-03-11T08:35:32;2.60;98.00
26575;DHT22;67165;50.256;10.978;2023-03-11T08:37:58;2.50;98.00
26575;DHT22;67165;50.256;10.978;2023-03-11T08:40:24;2.60;98.00
26575;DHT22;67165;50.256;10.978;2023-03-11T08:42:49;2.80;98.00
26575;DHT22;67165;50.256;10.978;2023-03-11T08:45:15;2.90;98.00
26575;DHT22;67165;50.256;10.978;2023-03-11T08:47:41;2.90;98.00
26575;DHT22;67165;50.256;10.978;2023-03-11T08:50:12;2.80;98.00
26575;DHT22;67165;50.256;10.978;2023-03-11T08:52:38;2.90;98.00
26575;DHT22;67165;50.256;10.978;2023-03-11T08:55:04;3.00;98.00
26575;DHT22;67165;50.256;10.978;2023-03-11T08:57:32;3.10;98.00
26575;DHT22;67165;50.256;10.978;2023-03-11T08:59:58;3.10;98.00
26575;DHT22;67165;50.256;10.978;2023-03-11T09:02:24;3.20;98.00
26575;DHT22;67165;50.256;10.978;2023-03-11T09:04:50;3.20;98.00
26575;DHT22;67165;50.256;10.978;2023-03-11T09:07:16;3.20;98.00
26575;DHT22;67165;50.256;10.978;2023-03-11T09:09:42;3.10;98.00
26575;DHT22;67165;50.256;10.978;2023-03-11T09:12:08;3.00;98.00
26575;DHT22;67165;50.256;10.978;2023-03-11T09:14:34;2.90;98.00
26575;DHT22;67165;50.256;10.978;2023-03-11T09:17:01;2.80;98.00
26575;DHT22;67165;50.256;10.978;2023-03-11T09:19:27;2.70;98.00
26575;DHT22;67165;50.256;10.978;2023-03-11T09:21:53;2.60;98.00
26575;DHT22;67165;50.256;10.978;2023-03-11T09:24:19;2.50;98.00
26575;DHT22;67165;50.256;10.978;2023-03-11T09:26:44;2.40;98.00
26575;DHT22;67165;50.256;10.978;2023-03-11T09:29:10;2.30;98.00
26575;DHT22;67165;50.256;10.978;2023-03-11T09:31:36;2.20;98.00
26575;DHT22;67165;50.256;10.978;2023-03-11T09:34:03;2.30;98.00
26575;DHT22;67165;50.256;10.978;2023-03-11T09:36:28;2.30;98.00
26575;DHT22;67165;50.256;10.978;2023-03-11T09:38:54;2.40;98.00
26575;DHT22;67165;50.256;10.978;2023-03-11T09:41:33;2.40;98.00
26575;DHT22;67165;50.256;10.978;2023-03-11T09:44:17;2.50;98.00
26575;DHT22;67165;50.256;10.978;2023-03-11T09:52:11;2.90;98.00
26575;DHT22;67165;50.256;10.978;2023-03-11T09:54:41;2.90;98.00
26575;DHT22;67165;50.256;10.978;2023-03-11T09:57:18;2.90;98.00
26575;DHT22;67165;50.256;10.978;2023-03-11T09:59:45;2.90;98.00
26575;DHT22;67165;50.256;10.978;2023-03-11T10:02:18;3.00;98.00
26575;DHT22;67165;50.256;10.978;2023-03-11T10:04:50;3.00;98.00
26575;DHT22;67165;50.256;10.978;2023-03-11T10:07:22;3.00;98.00
26575;DHT22;67165;50.256;10.978;2023-03-11T10:09:51;3.20;98.00
26575;DHT22;67165;50.256;10.978;2023-03-11T10:15:11;3.50;98.00
26575;DHT22;67165;50.256;10.978;2023-03-11T10:23:55;4.10;98.00
26575;DHT22;67165;50.256;10.978;2023-03-11T10:26:51;4.10;98.00
26575;DHT22;67165;50.256;10.978;2023-03-11T10:29:30;4.20;98.00
26575;DHT22;67165;50.256;10.978;2023-03-11T10:34:37;4.50;98.00
26575;DHT22;67165;50.256;10.978;2023-03-11T10:39:41;4.40;98.00
26575;DHT22;67165;50.256;10.978;2023-03-11T10:42:13;4.30;98.00
26575;DHT22;67165;50.256;10.978;2023-03-11T10:44:41;4.20;98.00
26575;DHT22;67165;50.256;10.978;2023-03-11T10:47:21;4.10;98.00
26575;DHT22;67165;50.256;10.978;2023-03-11T10:49:47;4.00;98.00
26575;DHT22;67165;50.256;10.978;2023-03-11T10:52:13;3.90;98.00
26575;DHT22;67165;50.256;10.978;2023-03-11T10:54:44;3.90;98.00
26575;DHT22;67165;50.256;10.978;2023-03-11T10:57:27;3.90;98.00
26575;DHT22;67165;50.256;10.978;2023-03-11T10:59:58;3.70;98.00
26575;DHT22;67165;50.256;10.978;2023-03-11T11:02:30;3.70;98.00
26575;DHT22;67165;50.256;10.978;2023-03-11T11:05:27;3.70;98.00
26575;DHT22;67165;50.256;10.978;2023-03-11T11:10:28;3.90;98.00
26575;DHT22;67165;50.256;10.978;2023-03-11T11:13:02;4.00;98.00
26575;DHT22;67165;50.256;10.978;2023-03-11T11:16:02;4.10;98.00
26575;DHT22;67165;50.256;10.978;2023-03-11T11:18:47;4.20;98.00
26575;DHT22;67165;50.256;10.978;2023-03-11T11:21:14;4.20;98.00
26575;DHT22;67165;50.256;10.978;2023-03-11T11:23:46;4.30;98.00
26575;DHT22;67165;50.256;10.978;2023-03-11T11:28:43;4.10;98.00
26575;DHT22;67165;50.256;10.978;2023-03-11T11:31:23;3.90;98.00
26575;DHT22;67165;50.256;10.978;2023-03-11T11:33:52;3.90;98.00
26575;DHT22;67165;50.256;10.978;2023-03-11T11:36:20;3.70;98.00
26575;DHT22;67165;50.256;10.978;2023-03-11T11:38:51;3.70;98.00
26575;DHT22;67165;50.256;10.978;2023-03-11T11:41:21;3.70;98.00
26575;DHT22;67165;50.256;10.978;2023-03-11T11:43:55;3.80;98.00
26575;DHT22;67165;50.256;10.978;2023-03-11T11:46:43;4.20;98.00
26575;DHT22;67165;50.256;10.978;2023-03-11T11:49:23;4.20;98.00
26575;DHT22;67165;50.256;10.978;2023-03-11T11:51:55;4.40;98.00
26575;DHT22;67165;50.256;10.978;2023-03-11T11:57:11;4.40;98.00
26575;DHT22;67165;50.256;10.978;2023-03-11T11:59:37;4.40;98.00
26575;DHT22;67165;50.256;10.978;2023-03-11T12:10:09;4.20;98.00
26575;DHT22;67165;50.256;10.978;2023-03-11T12:17:40;4.20;98.00
26575;DHT22;67165;50.256;10.978;2023-03-11T12:20:14;4.10;98.00
26575;DHT22;67165;50.256;10.978;2023-03-11T12:29:11;4.30;98.00
26575;DHT22;67165;50.256;10.978;2023-03-11T12:31:16;4.20;98.00
26575;DHT22;67165;50.256;10.978;2023-03-11T12:33:47;4.40;98.00
26575;DHT22;67165;50.256;10.978;2023-03-11T12:36:23;4.50;98.00
26575;DHT22;67165;50.256;10.978;2023-03-11T12:38:50;4.60;98.00
26575;DHT22;67165;50.256;10.978;2023-03-11T12:41:36;4.70;98.00
26575;DHT22;67165;50.256;10.978;2023-03-11T12:49:24;4.70;98.00
26575;DHT22;67165;50.256;10.978;2023-03-11T13:05:16;5.00;98.00
26575;DHT22;67165;50.256;10.978;2023-03-11T13:08:02;4.90;98.00
26575;DHT22;67165;50.256;10.978;2023-03-11T13:13:00;4.80;98.00
26575;DHT22;67165;50.256;10.978;2023-03-11T13:15:35;4.70;98.00
26575;DHT22;67165;50.256;10.978;2023-03-11T13:20:50;4.70;98.00
26575;DHT22;67165;50.256;10.978;2023-03-11T13:23:20;4.70;98.00
26575;DHT22;67165;50.256;10.978;2023-03-11T13:33:57;4.20;98.00
26575;DHT22;67165;50.256;10.978;2023-03-11T13:41:55;4.30;98.00
26575;DHT22;67165;50.256;10.978;2023-03-11T13:44:23;4.50;98.00
26575;DHT22;67165;50.256;10.978;2023-03-11T13:47:04;4.30;98.00
26575;DHT22;67165;50.256;10.978;2023-03-11T13:55:35;4.30;98.00
26575;DHT22;67165;50.256;10.978;2023-03-11T13:57:54;4.30;98.00
26575;DHT22;67165;50.256;10.978;2023-03-11T14:00:26;4.30;98.00
26575;DHT22;67165;50.256;10.978;2023-03-11T14:02:55;4.20;98.00
26575;DHT22;67165;50.256;10.978;2023-03-11T14:05:28;4.30;98.00
26575;DHT22;67165;50.256;10.978;2023-03-11T14:07:54;4.20;98.00
26575;DHT22;67165;50.256;10.978;2023-03-11T14:10:35;4.20;98.00
26575;DHT22;67165;50.256;10.978;2023-03-11T14:13:17;4.30;98.00
26575;DHT22;67165;50.256;10.978;2023-03-11T14:16:03;4.30;98.00
26575;DHT22;67165;50.256;10.978;2023-03-11T14:21:05;4.20;98.00
26575;DHT22;67165;50.256;10.978;2023-03-11T14:23:45;4.30;98.00
26575;DHT22;67165;50.256;10.978;2023-03-11T14:26:27;4.30;98.00
26575;DHT22;67165;50.256;10.978;2023-03-11T14:28:58;4.30;98.00
26575;DHT22;67165;50.256;10.978;2023-03-11T14:31:44;4.40;98.00
26575;DHT22;67165;50.256;10.978;2023-03-11T14:34:12;4.40;98.00
26575;DHT22;67165;50.256;10.978;2023-03-11T14:39:24;4.40;98.00
26575;DHT22;67165;50.256;10.978;2023-03-11T14:42:35;4.30;98.00
26575;DHT22;67165;50.256;10.978;2023-03-11T14:44:47;4.20;98.00
26575;DHT22;67165;50.256;10.978;2023-03-11T14:50:19;4.00;98.00
26575;DHT22;67165;50.256;10.978;2023-03-11T14:52:58;4.10;98.00
26575;DHT22;67165;50.256;10.978;2023-03-11T14:55:32;4.10;98.00
26575;DHT22;67165;50.256;10.978;2023-03-11T14:58:01;4.00;98.00
26575;DHT22;67165;50.256;10.978;2023-03-11T15:00:32;4.10;98.00
26575;DHT22;67165;50.256;10.978;2023-03-11T15:03:05;4.10;98.00
26575;DHT22;67165;50.256;10.978;2023-03-11T15:05:47;4.10;98.00
26575;DHT22;67165;50.256;10.978;2023-03-11T15:08:18;4.00;98.00
26575;DHT22;67165;50.256;10.978;2023-03-11T15:11:04;4.10;98.00
26575;DHT22;67165;50.256;10.978;2023-03-11T15:13:30;4.10;98.00
26575;DHT22;67165;50.256;10.978;2023-03-11T15:15:57;4.20;98.00
26575;DHT22;67165;50.256;10.978;2023-03-11T15:18:27;4.30;98.00
26575;DHT22;67165;50.256;10.978;2023-03-11T15:21:13;4.20;98.00
26575;DHT22;67165;50.256;10.978;2023-03-11T15:23:44;4.30;98.00
26575;DHT22;67165;50.256;10.978;2023-03-11T15:26:22;4.30;98.00
26575;DHT22;67165;50.256;10.978;2023-03-11T15:29:01;4.30;98.00
26575;DHT22;67165;50.256;10.978;2023-03-11T15:31:30;4.40;98.00
26575;DHT22;67165;50.256;10.978;2023-03-11T15:34:09;4.50;98.00
26575;DHT22;67165;50.256;10.978;2023-03-11T15:36:37;4.50;98.00
26575;DHT22;67165;50.256;10.978;2023-03-11T15:39:10;4.50;98.00
26575;DHT22;67165;50.256;10.978;2023-03-11T15:41:39;4.50;98.00
26575;DHT22;67165;50.256;10.978;2023-03-11T15:44:04;4.40;98.00
26575;DHT22;67165;50.256;10.978;2023-03-11T15:46:39;4.40;98.00
26575;DHT22;67165;50.256;10.978;2023-03-11T15:49:09;4.30;98.00
26575;DHT22;67165;50.256;10.978;2023-03-11T15:51:36;4.20;98.00
26575;DHT22;67165;50.256;10.978;2023-03-11T15:54:02;4.10;98.00
26575;DHT22;67165;50.256;10.978;2023-03-11T15:56:28;4.00;98.00
26575;DHT22;67165;50.256;10.978;2023-03-11T15:58:55;4.00;98.00
26575;DHT22;67165;50.256;10.978;2023-03-11T16:01:20;3.90;98.00
26575;DHT22;67165;50.256;10.978;2023-03-11T16:03:53;3.90;98.00
26575;DHT22;67165;50.256;10.978;2023-03-11T16:06:19;3.90;98.00
26575;DHT22;67165;50.256;10.978;2023-03-11T16:08:44;3.80;98.00
26575;DHT22;67165;50.256;10.978;2023-03-11T16:11:11;3.80;98.00
26575;DHT22;67165;50.256;10.978;2023-03-11T16:13:37;3.70;98.00
26575;DHT22;67165;50.256;10.978;2023-03-11T16:16:03;3.70;98.00
26575;DHT22;67165;50.256;10.978;2023-03-11T16:18:29;3.60;98.00
26575;DHT22;67165;50.256;10.978;2023-03-11T16:20:54;3.70;98.00
26575;DHT22;67165;50.256;10.978;2023-03-11T16:23:27;3.60;98.00
26575;DHT22;67165;50.256;10.978;2023-03-11T16:25:58;3.60;98.00
26575;DHT22;67165;50.256;10.978;2023-03-11T16:28:25;3.60;98.00
26575;DHT22;67165;50.256;10.978;2023-03-11T16:30:51;3.50;98.00
26575;DHT22;67165;50.256;10.978;2023-03-11T16:33:17;3.60;98.00
26575;DHT22;67165;50.256;10.978;2023-03-11T16:35:42;3.50;98.00
26575;DHT22;67165;50.256;10.978;2023-03-11T16:38:08;3.50;98.00
26575;DHT22;67165;50.256;10.978;2023-03-11T16:40:34;3.40;98.00
26575;DHT22;67165;50.256;10.978;2023-03-11T16:43:04;3.40;98.00
26575;DHT22;67165;50.256;10.978;2023-03-11T16:45:31;3.30;98.00
26575;DHT22;67165;50.256;10.978;2023-03-11T16:47:57;3.20;98.00
26575;DHT22;67165;50.256;10.978;2023-03-11T16:50:22;3.10;98.00
26575;DHT22;67165;50.256;10.978;2023-03-11T16:52:49;3.10;98.00
26575;DHT22;67165;50.256;10.978;2023-03-11T16:55:15;3.10;98.00
26575;DHT22;67165;50.256;10.978;2023-03-11T16:57:41;3.00;98.00
26575;DHT22;67165;50.256;10.978;2023-03-11T17:00:07;2.90;98.00
26575;DHT22;67165;50.256;10.978;2023-03-11T17:02:35;2.80;98.00
26575;DHT22;67165;50.256;10.978;2023-03-11T17:05:01;2.80;98.00
26575;DHT22;67165;50.256;10.978;2023-03-11T17:07:27;2.70;98.00
26575;DHT22;67165;50.256;10.978;2023-03-11T17:09:53;2.70;98.00
26575;DHT22;67165;50.256;10.978;2023-03-11T17:12:19;2.70;98.00
26575;DHT22;67165;50.256;10.978;2023-03-11T17:14:45;2.70;98.00
26575;DHT22;67165;50.256;10.978;2023-03-11T17:17:11;2.70;98.00
26575;DHT22;67165;50.256;10.978;2023-03-11T17:19:37;2.70;98.00
26575;DHT22;67165;50.256;10.978;2023-03-11T17:22:03;2.60;98.00
26575;DHT22;67165;50.256;10.978;2023-03-11T17:24:29;2.60;98.00
26575;DHT22;67165;50.256;10.978;2023-03-11T17:26:55;2.60;98.00